createdAt,value
2022-10-22T00:00:11.759Z,3.90
2022-10-22T00:02:39.810Z,4.03
2022-10-22T00:05:06.964Z,3.60
2022-10-22T00:07:33.869Z,6.90
2022-10-22T00:10:00.970Z,4.97
2022-10-22T00:12:28.004Z,8.65
2022-10-22T00:14:54.794Z,6.45
2022-10-22T00:17:21.732Z,8.23
2022-10-22T00:19:48.516Z,11.45
2022-10-22T00:22:15.263Z,11.35
2022-10-22T00:24:42.209Z,10.65
2022-10-22T00:27:11.602Z,11.02
2022-10-22T00:29:38.328Z,9.77
2022-10-22T00:32:06.464Z,11.48
2022-10-22T00:34:33.559Z,5.65
2022-10-22T00:37:00.366Z,4.50
2022-10-22T00:39:28.735Z,11.38
2022-10-22T00:41:57.459Z,5.82
2022-10-22T00:45:07.336Z,7.95
2022-10-22T00:47:40.060Z,6.03
2022-10-22T00:50:13.182Z,3.28
2022-10-22T00:52:40.662Z,6.47
2022-10-22T00:55:07.935Z,6.35
2022-10-22T00:57:35.644Z,8.55
2022-10-22T01:00:03.711Z,6.40
2022-10-22T01:02:30.645Z,5.00
2022-10-22T01:04:57.414Z,6.80
2022-10-22T01:07:24.858Z,5.90
2022-10-22T01:10:13.189Z,10.65
2022-10-22T01:12:45.709Z,4.68
2022-10-22T01:15:21.456Z,9.05
2022-10-22T01:18:00.186Z,8.55
2022-10-22T01:20:57.819Z,3.13
2022-10-22T01:23:44.800Z,7.47
2022-10-22T01:26:42.399Z,10.75
2022-10-22T01:29:13.882Z,6.07
2022-10-22T01:31:46.380Z,9.65
2022-10-22T01:34:16.916Z,13.20
2022-10-22T01:36:44.889Z,8.63
2022-10-22T01:39:14.805Z,9.38
2022-10-22T01:41:45.601Z,10.70
2022-10-22T01:44:24.374Z,9.77
2022-10-22T01:46:58.196Z,6.30
2022-10-22T01:49:47.533Z,9.98
2022-10-22T01:52:30.515Z,4.93
2022-10-22T01:55:15.529Z,9.50
2022-10-22T01:57:54.193Z,6.22
2022-10-22T02:00:21.537Z,8.23
2022-10-22T02:02:50.893Z,9.52
2022-10-22T02:05:41.065Z,11.80
2022-10-22T02:08:32.849Z,14.73
2022-10-22T02:11:01.274Z,11.73
2022-10-22T02:13:37.184Z,14.88
2022-10-22T02:16:08.289Z,9.93
2022-10-22T02:18:39.459Z,11.50
2022-10-22T02:23:35.735Z,11.52
2022-10-22T02:26:20.116Z,19.20
2022-10-22T02:29:07.009Z,19.33
2022-10-22T02:31:39.183Z,12.18
2022-10-22T02:34:11.353Z,21.85
2022-10-22T02:36:39.408Z,17.08
2022-10-22T02:39:07.911Z,16.25
2022-10-22T02:41:35.432Z,16.35
2022-10-22T02:44:03.214Z,11.38
2022-10-22T02:46:30.056Z,16.15
2022-10-22T02:48:56.771Z,9.20
2022-10-22T02:51:23.601Z,17.17
2022-10-22T02:53:50.382Z,13.85
2022-10-22T02:56:17.625Z,15.63
2022-10-22T02:58:44.328Z,19.02
2022-10-22T03:01:13.748Z,13.43
2022-10-22T03:03:42.876Z,13.13
2022-10-22T03:06:09.648Z,19.00
2022-10-22T03:08:36.448Z,14.07
2022-10-22T03:11:03.314Z,13.18
2022-10-22T03:13:30.030Z,9.93
2022-10-22T03:15:57.077Z,8.90
2022-10-22T03:18:23.873Z,17.48
2022-10-22T03:20:50.686Z,15.40
2022-10-22T03:23:20.154Z,8.20
2022-10-22T03:25:49.865Z,13.88
2022-10-22T03:28:18.485Z,13.48
2022-10-22T03:30:45.266Z,10.38
2022-10-22T03:33:11.987Z,12.35
2022-10-22T03:35:44.774Z,7.70
2022-10-22T03:38:12.167Z,9.93
2022-10-22T03:40:39.521Z,11.10
2022-10-22T03:43:06.370Z,9.48
2022-10-22T03:45:33.292Z,17.05
2022-10-22T03:48:00.147Z,9.98
2022-10-22T03:50:26.986Z,9.45
2022-10-22T03:52:53.829Z,14.13
2022-10-22T03:55:20.890Z,13.55
2022-10-22T03:57:47.633Z,15.20
2022-10-22T04:00:14.672Z,9.48
2022-10-22T04:02:41.512Z,11.38
2022-10-22T04:05:08.501Z,16.92
2022-10-22T04:07:35.369Z,16.65
2022-10-22T04:10:02.165Z,11.13
2022-10-22T04:12:28.936Z,14.95
2022-10-22T04:14:55.676Z,12.32
2022-10-22T04:17:22.488Z,18.55
2022-10-22T04:19:49.180Z,7.65
2022-10-22T04:22:15.939Z,16.30
2022-10-22T04:24:42.679Z,13.60
2022-10-22T04:27:09.426Z,7.00
2022-10-22T04:29:36.518Z,16.85
2022-10-22T04:32:03.293Z,9.68
2022-10-22T04:34:30.226Z,11.85
2022-10-22T04:36:57.158Z,14.60
2022-10-22T04:39:23.902Z,14.65
2022-10-22T04:41:50.751Z,15.43
2022-10-22T04:44:18.224Z,9.77
2022-10-22T04:46:45.692Z,5.68
2022-10-22T04:49:12.589Z,11.63
2022-10-22T04:51:39.406Z,15.85
2022-10-22T04:54:06.441Z,9.75
2022-10-22T04:56:33.239Z,10.15
2022-10-22T04:59:02.841Z,13.27
2022-10-22T05:01:41.699Z,9.35
2022-10-22T05:04:13.430Z,18.02
2022-10-22T05:06:40.229Z,9.50
2022-10-22T05:09:10.890Z,6.80
2022-10-22T05:11:41.753Z,11.13
2022-10-22T05:14:10.242Z,17.10
2022-10-22T05:16:38.606Z,8.30
2022-10-22T05:19:06.508Z,16.30
2022-10-22T05:21:33.718Z,14.30
2022-10-22T05:24:00.896Z,11.48
2022-10-22T05:26:28.978Z,12.98
2022-10-22T05:28:55.933Z,12.32
2022-10-22T05:31:22.774Z,9.55
2022-10-22T05:33:49.682Z,7.75
2022-10-22T05:36:19.300Z,10.20
2022-10-22T05:38:46.345Z,4.72
2022-10-22T05:41:18.410Z,7.72
2022-10-22T05:43:45.208Z,10.70
2022-10-22T05:46:22.210Z,13.65
2022-10-22T05:49:01.364Z,13.40
2022-10-22T05:51:31.445Z,12.25
2022-10-22T05:54:03.632Z,7.15
2022-10-22T05:56:32.285Z,11.07
2022-10-22T05:58:59.660Z,15.02
2022-10-22T06:01:32.219Z,16.85
2022-10-22T06:04:01.409Z,12.10
2022-10-22T06:06:35.661Z,8.77
2022-10-22T06:09:11.274Z,6.18
2022-10-22T06:11:38.325Z,10.25
2022-10-22T06:14:05.292Z,3.22
2022-10-22T06:16:32.442Z,7.57
2022-10-22T06:19:02.199Z,7.00
2022-10-22T06:21:29.766Z,15.75
2022-10-22T06:23:58.133Z,10.93
2022-10-22T06:26:25.078Z,15.63
2022-10-22T06:28:52.184Z,13.73
2022-10-22T06:31:18.980Z,8.20
2022-10-22T06:33:45.767Z,5.70
2022-10-22T06:36:18.302Z,6.20
2022-10-22T06:38:45.310Z,12.90
2022-10-22T06:41:14.293Z,13.13
2022-10-22T06:43:45.414Z,8.68
2022-10-22T06:46:17.421Z,8.18
2022-10-22T06:48:51.586Z,16.15
2022-10-22T06:51:19.235Z,10.30
2022-10-22T06:53:45.945Z,11.55
2022-10-22T06:56:15.271Z,10.50
2022-10-22T06:58:42.630Z,5.72
2022-10-22T07:01:12.571Z,12.90
2022-10-22T07:03:40.480Z,6.00
2022-10-22T07:06:13.342Z,12.88
2022-10-22T07:08:41.385Z,8.40
2022-10-22T07:11:14.010Z,8.88
2022-10-22T07:13:41.196Z,10.38
2022-10-22T07:16:09.329Z,10.82
2022-10-22T07:18:37.402Z,9.73
2022-10-22T07:21:05.492Z,12.48
2022-10-22T07:23:32.518Z,9.75
2022-10-22T07:26:02.722Z,10.88
2022-10-22T07:28:31.052Z,6.03
2022-10-22T07:30:57.842Z,9.75
2022-10-22T07:33:24.596Z,9.88
2022-10-22T07:35:51.319Z,6.43
2022-10-22T07:38:18.112Z,5.75
2022-10-22T07:40:44.832Z,14.07
2022-10-22T07:43:11.559Z,11.32
2022-10-22T07:45:39.194Z,8.48
2022-10-22T07:48:06.522Z,12.10
2022-10-22T07:50:33.387Z,15.30
2022-10-22T07:53:00.261Z,10.98
2022-10-22T07:55:27.148Z,14.75
2022-10-22T07:57:54.146Z,10.85
2022-10-22T08:00:24.472Z,7.63
2022-10-22T08:02:52.532Z,8.38
2022-10-22T08:05:19.882Z,13.98
2022-10-22T08:07:46.675Z,15.23
2022-10-22T08:10:13.976Z,12.10
2022-10-22T08:12:41.308Z,11.63
2022-10-22T08:15:09.090Z,16.63
2022-10-22T08:17:37.290Z,15.43
2022-10-22T08:20:04.317Z,11.50
2022-10-22T08:22:31.092Z,10.35
2022-10-22T08:24:57.804Z,10.95
2022-10-22T08:27:24.559Z,12.20
2022-10-22T08:29:51.278Z,7.82
2022-10-22T08:32:18.051Z,10.23
2022-10-22T08:34:44.855Z,8.15
2022-10-22T08:37:14.482Z,8.68
2022-10-22T08:39:41.610Z,12.52
2022-10-22T08:42:29.756Z,15.75
2022-10-22T08:44:56.424Z,7.28
2022-10-22T08:47:48.225Z,10.25
2022-10-22T08:50:22.919Z,9.27
2022-10-22T08:52:55.354Z,7.95
2022-10-22T08:55:24.993Z,5.90
2022-10-22T08:58:02.022Z,7.72
2022-10-22T09:00:36.930Z,11.48
2022-10-22T09:03:27.085Z,12.35
2022-10-22T09:06:05.613Z,10.60
2022-10-22T09:08:32.684Z,14.77
2022-10-22T09:11:06.803Z,9.80
2022-10-22T09:13:33.600Z,8.95
2022-10-22T09:16:14.319Z,8.30
2022-10-22T09:19:16.421Z,14.35
2022-10-22T09:22:08.678Z,8.10
2022-10-22T09:24:46.174Z,12.98
2022-10-22T09:27:18.151Z,14.45
2022-10-22T09:29:47.268Z,8.38
2022-10-22T09:32:15.994Z,6.85
2022-10-22T09:34:45.487Z,12.65
2022-10-22T09:37:12.560Z,15.15
2022-10-22T09:39:41.885Z,10.88
2022-10-22T09:42:10.303Z,10.90
2022-10-22T09:44:38.976Z,4.97
2022-10-22T09:47:08.046Z,12.27
2022-10-22T09:49:36.614Z,7.45
2022-10-22T09:52:03.550Z,7.55
2022-10-22T09:54:33.351Z,10.98
2022-10-22T09:57:17.757Z,12.68
2022-10-22T09:59:47.500Z,10.90
2022-10-22T10:02:26.813Z,7.10
2022-10-22T10:05:05.000Z,9.15
2022-10-22T10:07:34.400Z,11.45
2022-10-22T10:10:01.378Z,7.43
2022-10-22T10:15:29.870Z,10.63
2022-10-22T10:18:18.277Z,9.77
2022-10-22T10:20:50.673Z,8.02
2022-10-22T10:23:36.540Z,6.53
2022-10-22T10:26:13.297Z,7.95
2022-10-22T10:28:55.941Z,13.90
2022-10-22T10:31:42.850Z,10.45
2022-10-22T10:34:53.164Z,8.95
2022-10-22T10:37:30.005Z,6.07
2022-10-22T10:40:21.233Z,8.80
2022-10-22T10:43:11.996Z,5.72
2022-10-22T10:46:01.168Z,6.77
2022-10-22T10:48:35.291Z,7.00
2022-10-22T10:51:25.978Z,8.60
2022-10-22T10:54:16.704Z,10.33
2022-10-22T10:56:58.577Z,6.97
2022-10-22T10:59:58.797Z,9.40
2022-10-22T11:02:47.627Z,6.68
2022-10-22T11:05:41.376Z,9.30
2022-10-22T11:08:46.091Z,7.78
2022-10-22T11:11:21.638Z,7.82
2022-10-22T11:14:03.325Z,7.82
2022-10-22T11:16:45.213Z,8.15
2022-10-22T11:19:50.321Z,6.93
2022-10-22T11:22:26.774Z,8.20
2022-10-22T11:25:05.239Z,7.70
2022-10-22T11:27:47.774Z,7.03
2022-10-22T11:30:22.512Z,6.20
2022-10-22T11:32:55.122Z,5.47
2022-10-22T11:35:28.859Z,12.00
2022-10-22T11:37:57.240Z,6.28
2022-10-22T11:40:37.333Z,6.68
2022-10-22T11:43:06.574Z,8.13
2022-10-22T11:45:42.901Z,6.28
2022-10-22T11:48:17.342Z,7.80
2022-10-22T11:50:54.486Z,4.70
2022-10-22T11:53:34.264Z,5.55
2022-10-22T11:56:07.177Z,6.07
2022-10-22T11:58:44.554Z,7.45
2022-10-22T12:01:11.367Z,5.70
2022-10-22T12:03:41.123Z,5.25
2022-10-22T12:06:15.894Z,6.85
2022-10-22T12:08:56.798Z,5.28
2022-10-22T12:11:51.052Z,4.85
2022-10-22T12:14:27.078Z,3.60
2022-10-22T12:17:08.606Z,3.40
2022-10-22T12:19:40.213Z,3.72
2022-10-22T12:22:07.177Z,6.93
2022-10-22T12:24:44.773Z,4.95
2022-10-22T12:27:36.044Z,4.38
2022-10-22T12:30:24.834Z,6.05
2022-10-22T12:32:54.570Z,6.53
2022-10-22T12:35:26.869Z,5.15
2022-10-22T12:38:03.526Z,5.13
2022-10-22T12:40:36.020Z,3.78
2022-10-22T12:43:11.588Z,5.13
2022-10-22T12:45:40.228Z,7.30
2022-10-22T12:48:19.115Z,3.58
2022-10-22T12:50:51.442Z,6.25
2022-10-22T12:53:35.275Z,2.90
2022-10-22T12:56:06.486Z,4.68
2022-10-22T13:01:13.314Z,3.83
2022-10-22T13:03:52.571Z,3.75
2022-10-22T13:06:19.453Z,4.75
2022-10-22T13:08:55.912Z,7.00
2022-10-22T13:11:31.698Z,3.72
2022-10-22T13:14:18.679Z,4.85
2022-10-22T13:17:12.147Z,4.68
2022-10-22T13:19:48.072Z,7.15
2022-10-22T13:22:28.565Z,7.63
2022-10-22T13:27:28.271Z,3.22
2022-10-22T13:29:57.490Z,7.05
2022-10-22T13:32:34.893Z,4.75
2022-10-22T13:35:03.613Z,7.50
2022-10-22T13:37:32.617Z,7.10
2022-10-22T13:39:59.631Z,9.27
2022-10-22T13:42:26.723Z,6.20
2022-10-22T13:44:53.637Z,10.73
2022-10-22T13:47:29.439Z,8.50
2022-10-22T13:50:03.468Z,8.95
2022-10-22T13:52:37.557Z,10.32
2022-10-22T13:55:20.771Z,4.30
2022-10-22T13:57:48.399Z,7.40
2022-10-22T14:00:20.781Z,5.57
2022-10-22T14:02:50.735Z,5.03
2022-10-22T14:05:18.647Z,7.10
2022-10-22T14:07:46.025Z,6.97
2022-10-22T14:10:17.670Z,8.55
2022-10-22T14:12:47.285Z,11.00
2022-10-22T14:15:19.399Z,6.35
2022-10-22T14:17:55.423Z,5.45
2022-10-22T14:20:24.857Z,6.35
2022-10-22T14:22:52.206Z,7.60
2022-10-22T14:25:24.372Z,7.80
2022-10-22T14:27:52.093Z,6.63
2022-10-22T14:30:25.600Z,7.35
2022-10-22T14:32:53.208Z,3.65
2022-10-22T14:35:22.692Z,3.83
2022-10-22T14:37:50.338Z,6.43
2022-10-22T14:40:20.154Z,5.75
2022-10-22T14:42:49.164Z,12.32
2022-10-22T14:45:25.054Z,8.30
2022-10-22T14:47:56.253Z,5.40
2022-10-22T14:52:52.138Z,5.47
2022-10-22T14:55:23.159Z,11.35
2022-10-22T14:57:50.159Z,6.97
2022-10-22T15:00:18.456Z,11.35
2022-10-22T15:02:46.643Z,10.55
2022-10-22T15:05:14.289Z,7.43
2022-10-22T15:07:42.193Z,10.30
2022-10-22T15:10:10.380Z,6.88
2022-10-22T15:12:40.465Z,6.50
2022-10-22T15:15:08.276Z,10.55
2022-10-22T15:17:35.653Z,7.80
2022-10-22T15:20:04.630Z,7.60
2022-10-22T15:22:35.560Z,9.32
2022-10-22T15:25:08.229Z,7.85
2022-10-22T15:27:36.017Z,8.10
2022-10-22T15:32:30.046Z,7.38
2022-10-22T15:34:56.859Z,9.13
2022-10-22T15:37:24.002Z,10.55
2022-10-22T15:39:51.132Z,7.63
2022-10-22T15:42:19.236Z,9.32
2022-10-22T15:44:46.468Z,4.95
2022-10-22T15:47:13.379Z,13.63
2022-10-22T15:49:41.928Z,9.05
2022-10-22T15:52:10.013Z,6.93
2022-10-22T15:54:37.141Z,6.03
2022-10-22T15:57:08.562Z,14.35
2022-10-22T16:02:04.444Z,11.93
2022-10-22T16:04:31.304Z,7.88
2022-10-22T16:06:58.250Z,6.45
2022-10-22T16:09:27.457Z,11.63
2022-10-22T16:11:55.173Z,11.05
2022-10-22T16:14:24.269Z,12.32
2022-10-22T16:16:53.344Z,8.80
2022-10-22T16:19:22.410Z,12.55
2022-10-22T16:21:54.264Z,17.08
2022-10-22T16:24:22.485Z,13.27
2022-10-22T16:26:49.582Z,11.93
2022-10-22T16:29:16.848Z,11.68
2022-10-22T16:31:46.658Z,14.40
2022-10-22T16:34:13.645Z,12.25
2022-10-22T16:36:42.017Z,12.15
2022-10-22T16:39:09.159Z,9.93
2022-10-22T16:41:36.560Z,10.40
2022-10-22T16:44:06.266Z,9.40
2022-10-22T16:46:33.830Z,10.73
2022-10-22T16:49:00.871Z,14.27
2022-10-22T16:51:29.111Z,14.05
2022-10-22T16:53:57.419Z,11.48
2022-10-22T16:56:25.849Z,13.68
2022-10-22T16:58:55.389Z,14.50
2022-10-22T17:01:26.459Z,12.43
2022-10-22T17:03:56.921Z,8.40
2022-10-22T17:06:24.904Z,9.43
2022-10-22T17:08:51.920Z,9.45
2022-10-22T17:11:21.240Z,8.98
2022-10-22T17:13:49.568Z,10.70
2022-10-22T17:16:18.980Z,6.60
2022-10-22T17:21:14.399Z,5.53
2022-10-22T17:23:42.819Z,10.00
2022-10-22T17:26:15.315Z,7.80
2022-10-22T17:28:42.118Z,7.45
2022-10-22T17:31:15.421Z,8.95
2022-10-22T17:33:42.633Z,4.97
2022-10-22T17:36:12.947Z,10.63
2022-10-22T17:38:42.150Z,8.05
2022-10-22T17:41:14.545Z,4.38
2022-10-22T17:43:41.704Z,3.67
2022-10-22T17:46:14.372Z,5.63
2022-10-22T17:48:41.152Z,8.35
2022-10-22T17:51:09.215Z,7.13
2022-10-22T17:53:38.771Z,6.13
2022-10-22T17:56:10.314Z,9.43
2022-10-22T17:58:38.566Z,6.53
2022-10-22T18:01:06.638Z,7.43
2022-10-22T18:03:34.478Z,4.72
2022-10-22T18:06:08.841Z,5.20
2022-10-22T18:08:36.124Z,6.50
2022-10-22T18:11:11.538Z,6.18
2022-10-22T18:13:38.850Z,3.15
2022-10-22T18:16:06.094Z,4.88
2022-10-22T18:18:34.918Z,4.13
2022-10-22T18:21:02.558Z,4.82
2022-10-22T18:23:29.359Z,6.05
2022-10-22T18:25:56.177Z,4.05
2022-10-22T18:28:23.019Z,5.28
2022-10-22T18:30:49.820Z,4.00
2022-10-22T18:33:19.027Z,4.35
2022-10-22T18:35:48.667Z,2.40
2022-10-22T18:38:15.544Z,2.70
2022-10-22T18:40:46.985Z,5.85
2022-10-22T18:43:15.075Z,3.78
2022-10-22T18:45:45.823Z,9.35
2022-10-22T18:48:18.905Z,5.70
2022-10-22T18:50:47.349Z,4.22
2022-10-22T18:53:16.169Z,7.03
2022-10-22T18:55:43.331Z,3.75
2022-10-22T18:58:10.233Z,6.53
2022-10-22T19:00:39.500Z,6.30
2022-10-22T19:03:06.861Z,4.75
2022-10-22T19:05:34.385Z,7.85
2022-10-22T19:08:01.182Z,3.33
2022-10-22T19:10:28.226Z,5.43
2022-10-22T19:12:55.110Z,7.53
2022-10-22T19:15:21.949Z,6.38
2022-10-22T19:17:48.864Z,3.03
2022-10-22T19:20:15.608Z,9.30
2022-10-22T19:22:42.478Z,5.32
2022-10-22T19:25:11.970Z,5.15
2022-10-22T19:27:40.914Z,10.55
2022-10-22T19:30:08.449Z,9.82
2022-10-22T19:32:35.566Z,12.13
2022-10-22T19:35:02.641Z,7.93
2022-10-22T19:37:29.442Z,6.35
2022-10-22T19:39:56.317Z,4.70
2022-10-22T19:42:23.043Z,6.63
2022-10-22T19:44:49.948Z,4.82
2022-10-22T19:47:17.024Z,7.88
2022-10-22T19:49:43.792Z,13.13
2022-10-22T19:52:10.632Z,14.60
2022-10-22T19:54:40.952Z,12.55
2022-10-22T19:57:08.834Z,11.35
2022-10-22T19:59:35.864Z,12.88
2022-10-22T20:02:02.739Z,14.30
2022-10-22T20:04:30.186Z,10.05
2022-10-22T20:06:57.275Z,15.88
2022-10-22T20:09:24.287Z,17.63
2022-10-22T20:11:51.088Z,17.67
2022-10-22T20:14:17.986Z,12.80
2022-10-22T20:16:45.333Z,12.52
2022-10-22T20:19:16.267Z,13.38
2022-10-22T20:21:43.895Z,12.70
2022-10-22T20:24:11.443Z,17.17
2022-10-22T20:26:38.676Z,19.23
2022-10-22T20:29:05.508Z,11.63
2022-10-22T20:31:33.222Z,18.33
2022-10-22T20:34:01.495Z,15.80
2022-10-22T20:36:29.909Z,15.65
2022-10-22T20:39:07.198Z,25.45
2022-10-22T20:41:35.188Z,11.48
2022-10-22T20:44:02.010Z,25.63
2022-10-22T20:46:31.097Z,18.27
2022-10-22T20:49:17.747Z,21.20
2022-10-22T20:51:44.761Z,22.90
2022-10-22T20:54:12.085Z,23.60
2022-10-22T20:56:40.859Z,21.02
2022-10-22T20:59:10.871Z,24.15
2022-10-22T21:01:45.044Z,22.67
2022-10-22T21:04:12.009Z,18.27
2022-10-22T21:06:40.401Z,32.35
2022-10-22T21:09:09.082Z,25.45
2022-10-22T21:11:37.318Z,27.10
2022-10-22T21:14:06.030Z,33.08
2022-10-22T21:16:33.724Z,29.42
2022-10-22T21:19:00.816Z,20.17
2022-10-22T21:21:28.029Z,26.55
2022-10-22T21:23:54.894Z,18.85
2022-10-22T21:26:21.896Z,27.92
2022-10-22T21:28:48.812Z,32.33
2022-10-22T21:31:22.097Z,25.13
2022-10-22T21:33:50.385Z,26.90
2022-10-22T21:36:22.387Z,28.70
2022-10-22T21:38:53.812Z,24.90
2022-10-22T21:41:23.008Z,31.95
2022-10-22T21:43:50.818Z,28.13
2022-10-22T21:46:20.223Z,29.95
2022-10-22T21:48:47.656Z,33.13
2022-10-22T21:51:17.073Z,31.50
2022-10-22T21:53:44.370Z,45.75
2022-10-22T21:56:20.452Z,49.50
2022-10-22T21:58:48.343Z,34.70
2022-10-22T22:01:16.544Z,35.80
2022-10-22T22:03:45.796Z,33.92
2022-10-22T22:06:13.077Z,28.13
2022-10-22T22:08:40.150Z,28.05
2022-10-22T22:11:18.554Z,38.67
2022-10-22T22:13:45.549Z,24.30
2022-10-22T22:16:16.081Z,22.55
2022-10-22T22:18:42.969Z,26.63
2022-10-22T22:21:13.052Z,31.08
2022-10-22T22:23:42.327Z,21.80
2022-10-22T22:26:09.626Z,22.75
2022-10-22T22:28:37.248Z,24.23
2022-10-22T22:31:22.640Z,23.83
2022-10-22T22:33:49.615Z,22.02
2022-10-22T22:36:16.473Z,32.08
2022-10-22T22:38:43.363Z,34.00
2022-10-22T22:41:10.225Z,42.08
2022-10-22T22:43:38.591Z,34.92
2022-10-22T22:46:12.637Z,35.05
2022-10-22T22:48:40.274Z,31.42
2022-10-22T22:51:07.908Z,30.70
2022-10-22T22:53:35.828Z,35.22
2022-10-22T22:56:14.823Z,29.55
2022-10-22T22:58:43.467Z,29.50
2022-10-22T23:01:23.859Z,34.10
2022-10-22T23:04:10.853Z,31.50
2022-10-22T23:06:38.590Z,51.05
2022-10-22T23:09:07.449Z,34.65
2022-10-22T23:11:34.705Z,29.27
2022-10-22T23:14:04.255Z,24.65
2022-10-22T23:16:33.340Z,27.92
2022-10-22T23:19:00.839Z,18.55
2022-10-22T23:21:37.493Z,34.30
2022-10-22T23:24:07.831Z,25.02
2022-10-22T23:26:41.669Z,21.50
2022-10-22T23:29:18.456Z,21.98
2022-10-22T23:31:46.752Z,18.05
2022-10-22T23:34:17.242Z,22.92
2022-10-22T23:36:44.453Z,17.00
2022-10-22T23:39:17.131Z,18.90
2022-10-22T23:41:44.165Z,12.90
2022-10-22T23:44:11.406Z,16.60
2022-10-22T23:46:39.156Z,15.70
2022-10-22T23:49:07.422Z,13.98
2022-10-22T23:51:34.337Z,12.73
2022-10-22T23:54:06.253Z,8.38
2022-10-22T23:56:33.875Z,8.35
2022-10-22T23:59:00.835Z,8.18
